Main page
METAR-TAF:

METAR-TAF

Airports :

Ivalo Airport

Ivalo, Finland

latitude: 68-37N, longitude: 027-25E, elevation: 147 m

Current weather observation

The report was made 44 minutes ago, at 17:20 UTC
Wind 6 kt from the South, varying between South/Southeast and West/Southwest
Temperature 26°C
Humidity 32%
Pressure 1014 hPa
Visibility 10 km or more
no clouds below 1500 m and no cumulonimbus

METAR: EFIV 231720Z AUTO 19006KT 150V250 CAVOK 26/08 Q1014

Time: 21:04 (18:04 UTC)

Forecast

The report was made 9 hours and 32 minutes ago, at 08:32 UTC
Forecast valid from 23 at 09 UTC to 23 at 12 UTC
Wind 8 kt from the West/Southwest
Visibility 10 km or more
no clouds below 1500 m and no cumulonimbus

TAF: EFIV 230832Z 2309/2312 24008KT CAVOK

Weather observations and forecasts of more than 4000 airports (METAR and TAF reports).

The available stations are represented by yellow and red dots on the map.

Hover mouse over dot to see the name of the station.

Then click to see weather observations and forecasts.

To change the map : click on the green buttons with a black cross to zoom in, on the green button with a dash to zoom out, or on the green arrows for adjacent maps.


METAR-TAF: